sensor_id;sensor_type;location;lat;lon;timestamp;P1;durP1;ratioP1;P2;durP2;ratioP2
12348;SDS011;5974;42.710;27.258;2024-03-08T00:02:34;22.30;;;17.20;;
12348;SDS011;5974;42.710;27.258;2024-03-08T00:05:01;24.73;;;17.37;;
12348;SDS011;5974;42.710;27.258;2024-03-08T00:07:28;25.00;;;17.23;;
12348;SDS011;5974;42.710;27.258;2024-03-08T00:09:55;23.93;;;17.63;;
12348;SDS011;5974;42.710;27.258;2024-03-08T00:12:21;22.40;;;17.70;;
12348;SDS011;5974;42.710;27.258;2024-03-08T00:14:48;23.73;;;18.10;;
12348;SDS011;5974;42.710;27.258;2024-03-08T00:17:16;23.87;;;17.90;;
12348;SDS011;5974;42.710;27.258;2024-03-08T00:19:43;24.07;;;18.43;;
12348;SDS011;5974;42.710;27.258;2024-03-08T00:22:10;26.27;;;17.97;;
12348;SDS011;5974;42.710;27.258;2024-03-08T00:24:36;24.67;;;18.00;;
12348;SDS011;5974;42.710;27.258;2024-03-08T00:27:03;23.53;;;17.70;;
12348;SDS011;5974;42.710;27.258;2024-03-08T00:29:31;23.40;;;18.17;;
12348;SDS011;5974;42.710;27.258;2024-03-08T00:31:57;23.37;;;17.57;;
12348;SDS011;5974;42.710;27.258;2024-03-08T00:34:26;23.47;;;16.00;;
12348;SDS011;5974;42.710;27.258;2024-03-08T00:36:53;22.77;;;17.57;;
12348;SDS011;5974;42.710;27.258;2024-03-08T00:39:20;23.53;;;16.33;;
12348;SDS011;5974;42.710;27.258;2024-03-08T00:41:47;21.37;;;16.57;;
12348;SDS011;5974;42.710;27.258;2024-03-08T00:44:14;30.20;;;16.70;;
12348;SDS011;5974;42.710;27.258;2024-03-08T00:46:40;24.93;;;17.03;;
12348;SDS011;5974;42.710;27.258;2024-03-08T00:49:07;27.40;;;17.40;;
12348;SDS011;5974;42.710;27.258;2024-03-08T00:51:36;24.27;;;16.33;;
12348;SDS011;5974;42.710;27.258;2024-03-08T00:54:02;28.23;;;17.53;;
12348;SDS011;5974;42.710;27.258;2024-03-08T00:56:29;25.87;;;16.90;;
12348;SDS011;5974;42.710;27.258;2024-03-08T00:58:56;22.47;;;16.47;;
12348;SDS011;5974;42.710;27.258;2024-03-08T01:01:23;23.63;;;17.13;;
12348;SDS011;5974;42.710;27.258;2024-03-08T01:03:49;26.13;;;17.47;;
12348;SDS011;5974;42.710;27.258;2024-03-08T01:06:16;23.00;;;17.00;;
12348;SDS011;5974;42.710;27.258;2024-03-08T01:08:45;25.13;;;16.60;;
12348;SDS011;5974;42.710;27.258;2024-03-08T01:11:12;22.60;;;16.70;;
12348;SDS011;5974;42.710;27.258;2024-03-08T01:13:40;25.30;;;17.27;;
12348;SDS011;5974;42.710;27.258;2024-03-08T01:16:07;23.20;;;16.80;;
12348;SDS011;5974;42.710;27.258;2024-03-08T01:18:33;25.50;;;16.67;;
12348;SDS011;5974;42.710;27.258;2024-03-08T01:21:00;21.27;;;16.30;;
12348;SDS011;5974;42.710;27.258;2024-03-08T01:23:27;23.23;;;16.83;;
12348;SDS011;5974;42.710;27.258;2024-03-08T01:25:56;27.10;;;17.63;;
12348;SDS011;5974;42.710;27.258;2024-03-08T01:28:23;26.57;;;17.53;;
12348;SDS011;5974;42.710;27.258;2024-03-08T01:30:50;23.13;;;16.47;;
12348;SDS011;5974;42.710;27.258;2024-03-08T01:33:20;22.10;;;16.43;;
12348;SDS011;5974;42.710;27.258;2024-03-08T01:35:48;30.63;;;17.00;;
12348;SDS011;5974;42.710;27.258;2024-03-08T01:38:14;23.77;;;16.97;;
12348;SDS011;5974;42.710;27.258;2024-03-08T01:40:41;22.30;;;16.67;;
12348;SDS011;5974;42.710;27.258;2024-03-08T01:43:19;25.47;;;17.10;;
12348;SDS011;5974;42.710;27.258;2024-03-08T01:45:47;29.37;;;16.97;;
12348;SDS011;5974;42.710;27.258;2024-03-08T01:48:14;24.63;;;17.30;;
12348;SDS011;5974;42.710;27.258;2024-03-08T01:50:42;26.77;;;17.50;;
12348;SDS011;5974;42.710;27.258;2024-03-08T01:53:10;23.83;;;17.53;;
12348;SDS011;5974;42.710;27.258;2024-03-08T01:55:38;22.27;;;16.70;;
12348;SDS011;5974;42.710;27.258;2024-03-08T01:58:05;22.63;;;17.20;;
12348;SDS011;5974;42.710;27.258;2024-03-08T02:00:34;25.53;;;17.23;;
12348;SDS011;5974;42.710;27.258;2024-03-08T02:03:03;24.93;;;16.93;;
12348;SDS011;5974;42.710;27.258;2024-03-08T02:05:30;28.00;;;17.03;;
12348;SDS011;5974;42.710;27.258;2024-03-08T02:07:58;23.03;;;16.57;;
12348;SDS011;5974;42.710;27.258;2024-03-08T02:10:24;20.43;;;15.23;;
12348;SDS011;5974;42.710;27.258;2024-03-08T02:12:51;21.57;;;16.33;;
12348;SDS011;5974;42.710;27.258;2024-03-08T02:15:18;22.53;;;16.27;;
12348;SDS011;5974;42.710;27.258;2024-03-08T02:17:47;20.97;;;16.50;;
12348;SDS011;5974;42.710;27.258;2024-03-08T02:20:14;22.07;;;15.03;;
12348;SDS011;5974;42.710;27.258;2024-03-08T02:22:42;20.97;;;15.67;;
12348;SDS011;5974;42.710;27.258;2024-03-08T02:25:09;19.53;;;15.47;;
12348;SDS011;5974;42.710;27.258;2024-03-08T02:27:36;21.20;;;15.90;;
12348;SDS011;5974;42.710;27.258;2024-03-08T02:30:04;27.87;;;16.53;;
12348;SDS011;5974;42.710;27.258;2024-03-08T02:32:31;23.17;;;17.33;;
12348;SDS011;5974;42.710;27.258;2024-03-08T02:34:58;22.73;;;16.03;;
12348;SDS011;5974;42.710;27.258;2024-03-08T02:37:25;20.17;;;14.80;;
12348;SDS011;5974;42.710;27.258;2024-03-08T02:39:54;19.47;;;15.77;;
12348;SDS011;5974;42.710;27.258;2024-03-08T02:42:21;22.40;;;14.70;;
12348;SDS011;5974;42.710;27.258;2024-03-08T02:44:49;19.80;;;15.67;;
12348;SDS011;5974;42.710;27.258;2024-03-08T02:47:16;20.63;;;15.90;;
12348;SDS011;5974;42.710;27.258;2024-03-08T02:49:42;21.13;;;14.30;;
12348;SDS011;5974;42.710;27.258;2024-03-08T02:52:09;18.83;;;14.20;;
12348;SDS011;5974;42.710;27.258;2024-03-08T02:54:36;17.33;;;14.40;;
12348;SDS011;5974;42.710;27.258;2024-03-08T02:57:04;19.27;;;15.37;;
12348;SDS011;5974;42.710;27.258;2024-03-08T02:59:32;19.07;;;14.23;;
12348;SDS011;5974;42.710;27.258;2024-03-08T03:01:59;20.43;;;14.17;;
12348;SDS011;5974;42.710;27.258;2024-03-08T03:04:26;18.70;;;13.83;;
12348;SDS011;5974;42.710;27.258;2024-03-08T03:06:53;16.80;;;13.77;;
12348;SDS011;5974;42.710;27.258;2024-03-08T03:09:20;20.27;;;14.47;;
12348;SDS011;5974;42.710;27.258;2024-03-08T03:11:52;20.40;;;14.03;;
12348;SDS011;5974;42.710;27.258;2024-03-08T03:14:20;20.23;;;14.30;;
12348;SDS011;5974;42.710;27.258;2024-03-08T03:16:47;18.93;;;13.10;;
12348;SDS011;5974;42.710;27.258;2024-03-08T03:19:15;18.57;;;13.70;;
12348;SDS011;5974;42.710;27.258;2024-03-08T03:21:41;20.57;;;13.23;;
12348;SDS011;5974;42.710;27.258;2024-03-08T03:24:09;15.30;;;13.03;;
12348;SDS011;5974;42.710;27.258;2024-03-08T03:26:36;16.20;;;13.17;;
12348;SDS011;5974;42.710;27.258;2024-03-08T03:29:04;18.53;;;13.80;;
12348;SDS011;5974;42.710;27.258;2024-03-08T03:31:33;17.43;;;12.53;;
12348;SDS011;5974;42.710;27.258;2024-03-08T03:34:01;15.87;;;12.40;;
12348;SDS011;5974;42.710;27.258;2024-03-08T03:36:29;16.17;;;12.53;;
12348;SDS011;5974;42.710;27.258;2024-03-08T03:38:55;18.97;;;14.83;;
12348;SDS011;5974;42.710;27.258;2024-03-08T03:41:30;22.63;;;15.23;;
12348;SDS011;5974;42.710;27.258;2024-03-08T03:43:57;20.33;;;15.80;;
12348;SDS011;5974;42.710;27.258;2024-03-08T03:46:24;20.93;;;15.63;;
12348;SDS011;5974;42.710;27.258;2024-03-08T03:48:53;19.03;;;14.47;;
12348;SDS011;5974;42.710;27.258;2024-03-08T03:51:20;21.03;;;15.40;;
12348;SDS011;5974;42.710;27.258;2024-03-08T03:53:47;19.53;;;15.07;;
12348;SDS011;5974;42.710;27.258;2024-03-08T03:56:13;25.37;;;17.33;;
12348;SDS011;5974;42.710;27.258;2024-03-08T03:58:40;19.83;;;15.87;;
12348;SDS011;5974;42.710;27.258;2024-03-08T04:01:07;19.77;;;15.30;;
12348;SDS011;5974;42.710;27.258;2024-03-08T04:03:35;19.03;;;15.40;;
12348;SDS011;5974;42.710;27.258;2024-03-08T04:06:03;19.80;;;14.53;;
12348;SDS011;5974;42.710;27.258;2024-03-08T04:08:30;16.90;;;13.33;;
12348;SDS011;5974;42.710;27.258;2024-03-08T04:10:59;15.80;;;13.07;;
12348;SDS011;5974;42.710;27.258;2024-03-08T04:13:26;15.47;;;12.63;;
12348;SDS011;5974;42.710;27.258;2024-03-08T04:15:53;14.27;;;12.10;;
12348;SDS011;5974;42.710;27.258;2024-03-08T04:18:20;16.23;;;12.90;;
12348;SDS011;5974;42.710;27.258;2024-03-08T04:20:46;15.00;;;12.53;;
12348;SDS011;5974;42.710;27.258;2024-03-08T04:23:15;15.70;;;12.27;;
12348;SDS011;5974;42.710;27.258;2024-03-08T04:25:42;13.17;;;11.73;;
12348;SDS011;5974;42.710;27.258;2024-03-08T04:28:09;18.00;;;11.57;;
12348;SDS011;5974;42.710;27.258;2024-03-08T04:30:37;14.47;;;12.00;;
12348;SDS011;5974;42.710;27.258;2024-03-08T04:33:04;16.80;;;12.83;;
12348;SDS011;5974;42.710;27.258;2024-03-08T04:35:33;15.33;;;12.90;;
12348;SDS011;5974;42.710;27.258;2024-03-08T04:38:00;16.70;;;12.17;;
12348;SDS011;5974;42.710;27.258;2024-03-08T04:40:31;14.13;;;12.37;;
12348;SDS011;5974;42.710;27.258;2024-03-08T04:42:59;15.43;;;12.20;;
12348;SDS011;5974;42.710;27.258;2024-03-08T04:45:26;15.47;;;11.47;;
12348;SDS011;5974;42.710;27.258;2024-03-08T04:47:53;13.67;;;11.53;;
12348;SDS011;5974;42.710;27.258;2024-03-08T04:50:19;14.00;;;12.03;;
12348;SDS011;5974;42.710;27.258;2024-03-08T04:52:46;19.57;;;12.10;;
12348;SDS011;5974;42.710;27.258;2024-03-08T04:55:13;14.63;;;11.60;;
12348;SDS011;5974;42.710;27.258;2024-03-08T04:57:42;17.43;;;13.93;;
12348;SDS011;5974;42.710;27.258;2024-03-08T05:00:09;16.10;;;12.10;;
12348;SDS011;5974;42.710;27.258;2024-03-08T05:02:37;18.47;;;12.90;;
12348;SDS011;5974;42.710;27.258;2024-03-08T05:05:04;17.87;;;14.57;;
12348;SDS011;5974;42.710;27.258;2024-03-08T05:07:32;17.80;;;12.70;;
12348;SDS011;5974;42.710;27.258;2024-03-08T05:09:59;17.50;;;11.73;;
12348;SDS011;5974;42.710;27.258;2024-03-08T05:12:27;17.67;;;14.00;;
12348;SDS011;5974;42.710;27.258;2024-03-08T05:14:55;18.17;;;13.13;;
12348;SDS011;5974;42.710;27.258;2024-03-08T05:17:22;20.90;;;14.10;;
12348;SDS011;5974;42.710;27.258;2024-03-08T05:19:49;19.70;;;12.63;;
12348;SDS011;5974;42.710;27.258;2024-03-08T05:22:16;13.90;;;11.77;;
12348;SDS011;5974;42.710;27.258;2024-03-08T05:24:44;16.30;;;12.50;;
12348;SDS011;5974;42.710;27.258;2024-03-08T05:27:11;16.23;;;12.53;;
12348;SDS011;5974;42.710;27.258;2024-03-08T05:29:38;15.83;;;12.47;;
12348;SDS011;5974;42.710;27.258;2024-03-08T05:32:06;15.87;;;11.90;;
12348;SDS011;5974;42.710;27.258;2024-03-08T05:34:33;19.13;;;11.93;;
12348;SDS011;5974;42.710;27.258;2024-03-08T05:36:59;15.73;;;12.13;;
12348;SDS011;5974;42.710;27.258;2024-03-08T05:39:26;15.53;;;11.67;;
12348;SDS011;5974;42.710;27.258;2024-03-08T05:41:54;16.23;;;12.00;;
12348;SDS011;5974;42.710;27.258;2024-03-08T05:44:21;14.33;;;11.40;;
12348;SDS011;5974;42.710;27.258;2024-03-08T05:46:48;17.70;;;12.03;;
12348;SDS011;5974;42.710;27.258;2024-03-08T05:49:17;17.80;;;12.70;;
12348;SDS011;5974;42.710;27.258;2024-03-08T05:51:43;19.37;;;13.90;;
12348;SDS011;5974;42.710;27.258;2024-03-08T05:54:12;14.37;;;11.73;;
12348;SDS011;5974;42.710;27.258;2024-03-08T05:56:39;18.63;;;12.57;;
12348;SDS011;5974;42.710;27.258;2024-03-08T05:59:07;16.83;;;12.33;;
12348;SDS011;5974;42.710;27.258;2024-03-08T06:01:34;17.77;;;12.93;;
12348;SDS011;5974;42.710;27.258;2024-03-08T06:04:02;16.37;;;11.70;;
12348;SDS011;5974;42.710;27.258;2024-03-08T06:06:31;18.20;;;12.67;;
12348;SDS011;5974;42.710;27.258;2024-03-08T06:08:57;19.60;;;11.93;;
12348;SDS011;5974;42.710;27.258;2024-03-08T06:11:25;17.00;;;13.00;;
12348;SDS011;5974;42.710;27.258;2024-03-08T06:13:53;19.20;;;13.47;;
12348;SDS011;5974;42.710;27.258;2024-03-08T06:16:25;15.57;;;12.50;;
12348;SDS011;5974;42.710;27.258;2024-03-08T06:18:54;18.67;;;13.47;;
12348;SDS011;5974;42.710;27.258;2024-03-08T06:21:22;15.73;;;12.60;;
12348;SDS011;5974;42.710;27.258;2024-03-08T06:23:52;17.87;;;12.30;;
12348;SDS011;5974;42.710;27.258;2024-03-08T06:26:20;17.67;;;12.23;;
12348;SDS011;5974;42.710;27.258;2024-03-08T06:28:47;15.90;;;12.30;;
12348;SDS011;5974;42.710;27.258;2024-03-08T06:31:15;14.73;;;11.73;;
12348;SDS011;5974;42.710;27.258;2024-03-08T06:33:42;15.93;;;13.00;;
12348;SDS011;5974;42.710;27.258;2024-03-08T06:36:10;16.87;;;13.47;;
12348;SDS011;5974;42.710;27.258;2024-03-08T06:38:37;16.90;;;12.20;;
12348;SDS011;5974;42.710;27.258;2024-03-08T06:41:08;16.93;;;12.93;;
12348;SDS011;5974;42.710;27.258;2024-03-08T06:43:40;16.53;;;11.97;;
12348;SDS011;5974;42.710;27.258;2024-03-08T06:46:07;16.20;;;12.73;;
12348;SDS011;5974;42.710;27.258;2024-03-08T06:48:34;20.50;;;13.43;;
12348;SDS011;5974;42.710;27.258;2024-03-08T06:51:02;15.43;;;12.53;;
12348;SDS011;5974;42.710;27.258;2024-03-08T06:53:30;16.93;;;12.87;;
12348;SDS011;5974;42.710;27.258;2024-03-08T06:55:57;14.67;;;12.07;;
12348;SDS011;5974;42.710;27.258;2024-03-08T06:58:25;15.23;;;12.80;;
12348;SDS011;5974;42.710;27.258;2024-03-08T07:00:52;20.30;;;13.40;;
12348;SDS011;5974;42.710;27.258;2024-03-08T07:03:23;16.40;;;12.33;;
12348;SDS011;5974;42.710;27.258;2024-03-08T07:05:51;15.87;;;12.33;;
12348;SDS011;5974;42.710;27.258;2024-03-08T07:08:18;17.40;;;12.70;;
12348;SDS011;5974;42.710;27.258;2024-03-08T07:10:47;19.93;;;12.80;;
12348;SDS011;5974;42.710;27.258;2024-03-08T07:13:14;18.40;;;13.50;;
12348;SDS011;5974;42.710;27.258;2024-03-08T07:15:43;16.40;;;14.57;;
12348;SDS011;5974;42.710;27.258;2024-03-08T07:18:10;16.87;;;13.57;;
12348;SDS011;5974;42.710;27.258;2024-03-08T07:20:39;18.13;;;13.80;;
12348;SDS011;5974;42.710;27.258;2024-03-08T07:23:06;19.63;;;14.30;;
12348;SDS011;5974;42.710;27.258;2024-03-08T07:25:35;20.20;;;14.13;;
12348;SDS011;5974;42.710;27.258;2024-03-08T07:28:04;17.53;;;14.17;;
12348;SDS011;5974;42.710;27.258;2024-03-08T07:30:31;19.50;;;13.93;;
12348;SDS011;5974;42.710;27.258;2024-03-08T07:33:17;15.90;;;12.93;;
12348;SDS011;5974;42.710;27.258;2024-03-08T07:35:43;19.77;;;13.77;;
12348;SDS011;5974;42.710;27.258;2024-03-08T07:38:12;17.53;;;13.77;;
12348;SDS011;5974;42.710;27.258;2024-03-08T07:40:39;17.73;;;14.70;;
12348;SDS011;5974;42.710;27.258;2024-03-08T07:43:09;20.00;;;16.23;;
12348;SDS011;5974;42.710;27.258;2024-03-08T07:45:36;18.70;;;15.73;;
12348;SDS011;5974;42.710;27.258;2024-03-08T07:48:03;17.00;;;15.07;;
12348;SDS011;5974;42.710;27.258;2024-03-08T07:50:36;21.97;;;17.17;;
12348;SDS011;5974;42.710;27.258;2024-03-08T07:53:03;19.73;;;13.97;;
12348;SDS011;5974;42.710;27.258;2024-03-08T07:55:31;19.77;;;14.47;;
12348;SDS011;5974;42.710;27.258;2024-03-08T07:57:58;20.33;;;17.77;;
12348;SDS011;5974;42.710;27.258;2024-03-08T08:00:25;15.63;;;13.53;;
12348;SDS011;5974;42.710;27.258;2024-03-08T08:02:52;20.90;;;14.17;;
12348;SDS011;5974;42.710;27.258;2024-03-08T08:05:19;19.63;;;15.30;;
12348;SDS011;5974;42.710;27.258;2024-03-08T08:07:47;18.37;;;14.67;;
12348;SDS011;5974;42.710;27.258;2024-03-08T08:10:14;15.27;;;12.80;;
12348;SDS011;5974;42.710;27.258;2024-03-08T08:12:43;19.27;;;14.10;;
12348;SDS011;5974;42.710;27.258;2024-03-08T08:15:11;17.67;;;13.87;;
12348;SDS011;5974;42.710;27.258;2024-03-08T08:17:38;21.93;;;15.60;;
12348;SDS011;5974;42.710;27.258;2024-03-08T08:20:05;17.70;;;14.93;;
12348;SDS011;5974;42.710;27.258;2024-03-08T08:22:33;17.27;;;14.50;;
12348;SDS011;5974;42.710;27.258;2024-03-08T08:25:01;19.03;;;15.00;;
12348;SDS011;5974;42.710;27.258;2024-03-08T08:27:28;19.47;;;15.13;;
12348;SDS011;5974;42.710;27.258;2024-03-08T08:29:55;18.30;;;15.40;;
12348;SDS011;5974;42.710;27.258;2024-03-08T08:32:22;19.20;;;14.77;;
12348;SDS011;5974;42.710;27.258;2024-03-08T08:34:48;16.27;;;13.10;;
12348;SDS011;5974;42.710;27.258;2024-03-08T08:37:15;18.03;;;13.87;;
12348;SDS011;5974;42.710;27.258;2024-03-08T08:39:42;17.60;;;13.57;;
12348;SDS011;5974;42.710;27.258;2024-03-08T08:42:10;17.23;;;13.80;;
12348;SDS011;5974;42.710;27.258;2024-03-08T08:44:38;16.83;;;13.60;;
12348;SDS011;5974;42.710;27.258;2024-03-08T08:47:04;19.23;;;14.23;;
12348;SDS011;5974;42.710;27.258;2024-03-08T08:49:31;18.27;;;13.23;;
12348;SDS011;5974;42.710;27.258;2024-03-08T08:51:58;18.03;;;13.50;;
12348;SDS011;5974;42.710;27.258;2024-03-08T08:54:26;14.50;;;13.00;;
12348;SDS011;5974;42.710;27.258;2024-03-08T08:56:52;17.07;;;13.50;;
12348;SDS011;5974;42.710;27.258;2024-03-08T08:59:21;16.57;;;12.50;;
12348;SDS011;5974;42.710;27.258;2024-03-08T09:01:50;15.70;;;12.57;;
12348;SDS011;5974;42.710;27.258;2024-03-08T09:04:18;14.23;;;11.50;;
12348;SDS011;5974;42.710;27.258;2024-03-08T09:06:46;13.67;;;10.83;;
12348;SDS011;5974;42.710;27.258;2024-03-08T09:09:13;14.13;;;11.47;;
12348;SDS011;5974;42.710;27.258;2024-03-08T09:11:42;12.53;;;11.10;;
12348;SDS011;5974;42.710;27.258;2024-03-08T09:14:08;15.10;;;12.27;;
12348;SDS011;5974;42.710;27.258;2024-03-08T09:16:38;17.47;;;13.93;;
12348;SDS011;5974;42.710;27.258;2024-03-08T09:19:05;19.53;;;16.73;;
12348;SDS011;5974;42.710;27.258;2024-03-08T09:21:32;17.17;;;12.87;;
12348;SDS011;5974;42.710;27.258;2024-03-08T09:23:59;20.13;;;12.70;;
12348;SDS011;5974;42.710;27.258;2024-03-08T09:26:26;14.80;;;12.80;;
12348;SDS011;5974;42.710;27.258;2024-03-08T09:28:53;14.07;;;12.40;;
12348;SDS011;5974;42.710;27.258;2024-03-08T09:31:21;15.90;;;12.33;;
12348;SDS011;5974;42.710;27.258;2024-03-08T09:33:49;14.37;;;12.00;;
12348;SDS011;5974;42.710;27.258;2024-03-08T09:36:15;16.57;;;13.00;;
12348;SDS011;5974;42.710;27.258;2024-03-08T09:38:42;14.40;;;11.87;;
12348;SDS011;5974;42.710;27.258;2024-03-08T09:41:09;14.80;;;11.03;;
12348;SDS011;5974;42.710;27.258;2024-03-08T09:43:37;16.43;;;11.30;;
12348;SDS011;5974;42.710;27.258;2024-03-08T09:46:04;12.00;;;10.70;;
12348;SDS011;5974;42.710;27.258;2024-03-08T09:48:33;14.33;;;11.63;;
12348;SDS011;5974;42.710;27.258;2024-03-08T09:51:02;11.53;;;10.30;;
12348;SDS011;5974;42.710;27.258;2024-03-08T09:53:29;12.93;;;11.10;;
12348;SDS011;5974;42.710;27.258;2024-03-08T09:55:56;13.83;;;11.17;;
12348;SDS011;5974;42.710;27.258;2024-03-08T09:58:24;14.00;;;12.03;;
12348;SDS011;5974;42.710;27.258;2024-03-08T10:01:07;12.30;;;10.83;;
12348;SDS011;5974;42.710;27.258;2024-03-08T10:03:34;13.27;;;10.53;;
12348;SDS011;5974;42.710;27.258;2024-03-08T10:06:03;12.70;;;9.67;;
12348;SDS011;5974;42.710;27.258;2024-03-08T10:08:31;10.17;;;9.07;;
12348;SDS011;5974;42.710;27.258;2024-03-08T10:10:57;11.23;;;9.83;;
12348;SDS011;5974;42.710;27.258;2024-03-08T10:13:24;11.67;;;10.23;;
12348;SDS011;5974;42.710;27.258;2024-03-08T10:15:53;12.83;;;10.97;;
12348;SDS011;5974;42.710;27.258;2024-03-08T10:18:20;10.87;;;8.67;;
12348;SDS011;5974;42.710;27.258;2024-03-08T10:20:51;11.80;;;9.27;;
12348;SDS011;5974;42.710;27.258;2024-03-08T10:23:35;10.20;;;9.07;;
12348;SDS011;5974;42.710;27.258;2024-03-08T10:26:09;10.23;;;8.93;;
12348;SDS011;5974;42.710;27.258;2024-03-08T10:28:39;9.30;;;8.33;;
12348;SDS011;5974;42.710;27.258;2024-03-08T10:31:06;15.23;;;10.60;;
12348;SDS011;5974;42.710;27.258;2024-03-08T10:33:33;11.07;;;9.50;;
12348;SDS011;5974;42.710;27.258;2024-03-08T10:36:00;9.90;;;8.73;;
12348;SDS011;5974;42.710;27.258;2024-03-08T10:38:29;12.03;;;8.63;;
12348;SDS011;5974;42.710;27.258;2024-03-08T10:40:59;9.57;;;7.73;;
12348;SDS011;5974;42.710;27.258;2024-03-08T10:43:28;9.20;;;7.97;;
12348;SDS011;5974;42.710;27.258;2024-03-08T10:46:05;10.17;;;9.17;;
12348;SDS011;5974;42.710;27.258;2024-03-08T10:48:43;8.27;;;7.20;;
12348;SDS011;5974;42.710;27.258;2024-03-08T10:51:11;9.03;;;6.90;;
12348;SDS011;5974;42.710;27.258;2024-03-08T10:53:39;9.37;;;7.97;;
12348;SDS011;5974;42.710;27.258;2024-03-08T10:56:07;10.27;;;9.17;;
12348;SDS011;5974;42.710;27.258;2024-03-08T10:58:35;9.73;;;7.73;;
12348;SDS011;5974;42.710;27.258;2024-03-08T11:01:03;7.00;;;6.03;;
12348;SDS011;5974;42.710;27.258;2024-03-08T11:03:44;8.40;;;7.00;;
12348;SDS011;5974;42.710;27.258;2024-03-08T11:06:14;9.23;;;8.13;;
12348;SDS011;5974;42.710;27.258;2024-03-08T11:08:44;9.57;;;7.17;;
12348;SDS011;5974;42.710;27.258;2024-03-08T11:11:25;8.87;;;7.00;;
12348;SDS011;5974;42.710;27.258;2024-03-08T11:14:00;9.97;;;6.53;;
12348;SDS011;5974;42.710;27.258;2024-03-08T11:16:37;7.63;;;6.50;;
12348;SDS011;5974;42.710;27.258;2024-03-08T11:19:06;8.73;;;6.63;;
12348;SDS011;5974;42.710;27.258;2024-03-08T11:21:56;9.90;;;7.43;;
12348;SDS011;5974;42.710;27.258;2024-03-08T11:24:25;7.73;;;6.93;;
12348;SDS011;5974;42.710;27.258;2024-03-08T11:26:56;8.17;;;7.07;;
12348;SDS011;5974;42.710;27.258;2024-03-08T11:29:34;8.60;;;7.20;;
12348;SDS011;5974;42.710;27.258;2024-03-08T11:32:05;7.73;;;6.93;;
12348;SDS011;5974;42.710;27.258;2024-03-08T11:34:34;11.07;;;7.70;;
12348;SDS011;5974;42.710;27.258;2024-03-08T11:37:03;8.60;;;7.70;;
12348;SDS011;5974;42.710;27.258;2024-03-08T11:39:32;8.50;;;7.63;;
12348;SDS011;5974;42.710;27.258;2024-03-08T11:41:58;8.97;;;7.80;;
12348;SDS011;5974;42.710;27.258;2024-03-08T11:44:26;8.00;;;7.13;;
12348;SDS011;5974;42.710;27.258;2024-03-08T11:46:54;9.70;;;7.73;;
12348;SDS011;5974;42.710;27.258;2024-03-08T11:49:21;7.27;;;6.03;;
12348;SDS011;5974;42.710;27.258;2024-03-08T11:51:50;9.03;;;7.07;;
12348;SDS011;5974;42.710;27.258;2024-03-08T11:54:18;7.70;;;6.90;;
12348;SDS011;5974;42.710;27.258;2024-03-08T11:56:47;9.03;;;6.77;;
12348;SDS011;5974;42.710;27.258;2024-03-08T11:59:14;7.77;;;6.67;;
12348;SDS011;5974;42.710;27.258;2024-03-08T12:01:42;8.90;;;6.93;;
12348;SDS011;5974;42.710;27.258;2024-03-08T12:04:12;8.20;;;7.37;;
12348;SDS011;5974;42.710;27.258;2024-03-08T12:06:39;8.07;;;6.93;;
12348;SDS011;5974;42.710;27.258;2024-03-08T12:09:10;8.50;;;6.70;;
12348;SDS011;5974;42.710;27.258;2024-03-08T12:11:38;7.80;;;7.00;;
12348;SDS011;5974;42.710;27.258;2024-03-08T12:14:06;8.80;;;7.90;;
12348;SDS011;5974;42.710;27.258;2024-03-08T12:16:33;8.00;;;6.33;;
12348;SDS011;5974;42.710;27.258;2024-03-08T12:19:00;7.63;;;6.63;;
12348;SDS011;5974;42.710;27.258;2024-03-08T12:21:30;9.20;;;6.43;;
12348;SDS011;5974;42.710;27.258;2024-03-08T12:24:03;7.27;;;6.57;;
12348;SDS011;5974;42.710;27.258;2024-03-08T12:26:33;7.00;;;6.30;;
12348;SDS011;5974;42.710;27.258;2024-03-08T12:29:15;7.53;;;6.33;;
12348;SDS011;5974;42.710;27.258;2024-03-08T12:31:45;10.07;;;8.83;;
12348;SDS011;5974;42.710;27.258;2024-03-08T12:34:12;7.73;;;6.17;;
12348;SDS011;5974;42.710;27.258;2024-03-08T12:36:44;7.20;;;6.50;;
12348;SDS011;5974;42.710;27.258;2024-03-08T12:39:13;7.77;;;6.30;;
12348;SDS011;5974;42.710;27.258;2024-03-08T12:41:42;6.50;;;5.83;;
12348;SDS011;5974;42.710;27.258;2024-03-08T12:44:09;7.67;;;6.90;;
12348;SDS011;5974;42.710;27.258;2024-03-08T12:46:38;8.57;;;6.50;;
12348;SDS011;5974;42.710;27.258;2024-03-08T12:49:07;8.20;;;6.87;;
12348;SDS011;5974;42.710;27.258;2024-03-08T12:51:37;8.37;;;6.77;;
12348;SDS011;5974;42.710;27.258;2024-03-08T12:54:04;9.33;;;7.70;;
12348;SDS011;5974;42.710;27.258;2024-03-08T12:56:32;10.53;;;7.67;;
12348;SDS011;5974;42.710;27.258;2024-03-08T12:59:00;9.10;;;8.20;;
12348;SDS011;5974;42.710;27.258;2024-03-08T13:01:28;10.07;;;8.97;;
12348;SDS011;5974;42.710;27.258;2024-03-08T13:03:58;12.00;;;9.17;;
12348;SDS011;5974;42.710;27.258;2024-03-08T13:06:27;14.03;;;10.00;;
12348;SDS011;5974;42.710;27.258;2024-03-08T13:08:54;13.90;;;9.73;;
12348;SDS011;5974;42.710;27.258;2024-03-08T13:11:21;13.67;;;9.67;;
12348;SDS011;5974;42.710;27.258;2024-03-08T13:13:48;11.20;;;9.47;;
12348;SDS011;5974;42.710;27.258;2024-03-08T13:16:15;14.57;;;10.40;;
12348;SDS011;5974;42.710;27.258;2024-03-08T13:18:44;12.93;;;10.10;;
12348;SDS011;5974;42.710;27.258;2024-03-08T13:21:15;12.33;;;11.00;;
12348;SDS011;5974;42.710;27.258;2024-03-08T13:23:45;12.90;;;10.63;;
12348;SDS011;5974;42.710;27.258;2024-03-08T13:26:14;14.30;;;10.90;;
12348;SDS011;5974;42.710;27.258;2024-03-08T13:28:42;14.33;;;11.40;;
12348;SDS011;5974;42.710;27.258;2024-03-08T13:31:09;12.60;;;10.73;;
12348;SDS011;5974;42.710;27.258;2024-03-08T13:33:36;15.60;;;10.37;;
12348;SDS011;5974;42.710;27.258;2024-03-08T13:36:04;15.17;;;11.27;;
12348;SDS011;5974;42.710;27.258;2024-03-08T13:38:41;15.27;;;11.53;;
12348;SDS011;5974;42.710;27.258;2024-03-08T13:41:12;16.30;;;11.43;;
12348;SDS011;5974;42.710;27.258;2024-03-08T13:43:41;16.87;;;11.33;;
12348;SDS011;5974;42.710;27.258;2024-03-08T13:46:08;14.27;;;12.00;;
12348;SDS011;5974;42.710;27.258;2024-03-08T13:48:36;18.70;;;12.10;;
12348;SDS011;5974;42.710;27.258;2024-03-08T13:51:04;15.83;;;12.27;;
12348;SDS011;5974;42.710;27.258;2024-03-08T13:53:31;14.53;;;11.40;;
12348;SDS011;5974;42.710;27.258;2024-03-08T13:56:01;18.07;;;12.53;;
12348;SDS011;5974;42.710;27.258;2024-03-08T13:58:28;14.10;;;11.23;;
12348;SDS011;5974;42.710;27.258;2024-03-08T14:00:54;15.50;;;11.90;;
12348;SDS011;5974;42.710;27.258;2024-03-08T14:03:21;15.27;;;12.17;;
12348;SDS011;5974;42.710;27.258;2024-03-08T14:05:48;15.30;;;12.30;;
12348;SDS011;5974;42.710;27.258;2024-03-08T14:08:15;14.10;;;11.97;;
12348;SDS011;5974;42.710;27.258;2024-03-08T14:10:42;15.43;;;12.07;;
12348;SDS011;5974;42.710;27.258;2024-03-08T14:13:13;19.00;;;15.30;;
12348;SDS011;5974;42.710;27.258;2024-03-08T14:15:41;17.83;;;12.20;;
12348;SDS011;5974;42.710;27.258;2024-03-08T14:18:09;20.07;;;14.43;;
12348;SDS011;5974;42.710;27.258;2024-03-08T14:20:38;17.80;;;12.27;;
12348;SDS011;5974;42.710;27.258;2024-03-08T14:23:04;17.47;;;12.80;;
12348;SDS011;5974;42.710;27.258;2024-03-08T14:25:33;15.43;;;13.37;;
12348;SDS011;5974;42.710;27.258;2024-03-08T14:28:00;17.97;;;13.33;;
12348;SDS011;5974;42.710;27.258;2024-03-08T14:30:30;16.50;;;12.53;;
12348;SDS011;5974;42.710;27.258;2024-03-08T14:33:03;15.37;;;13.13;;